createdAt,value
2017-04-19T00:07:26.285Z,1025.5
2017-04-19T00:17:26.262Z,1025.55
2017-04-19T00:27:26.312Z,1025.59
2017-04-19T00:37:26.262Z,1025.6
2017-04-19T00:47:26.338Z,1025.48
2017-04-19T00:57:26.300Z,1025.56
2017-04-19T01:07:26.354Z,1025.75
2017-04-19T01:17:26.314Z,1025.75
2017-04-19T01:27:26.272Z,1025.82
2017-04-19T01:37:26.332Z,1025.93
2017-04-19T01:47:26.299Z,1025.93
2017-04-19T01:57:26.371Z,1025.92
2017-04-19T02:07:26.328Z,1026.02
2017-04-19T02:17:26.391Z,1026.02
2017-04-19T02:27:26.350Z,1026.09
2017-04-19T02:37:26.413Z,1026.1
2017-04-19T02:47:26.365Z,1026.14
2017-04-19T02:57:26.434Z,1026.18
2017-04-19T03:07:26.408Z,1026.22
2017-04-19T03:17:26.459Z,1026.18
2017-04-19T03:27:26.425Z,1026.23
2017-04-19T03:37:26.387Z,1026.29
2017-04-19T03:47:26.432Z,1026.4
2017-04-19T03:57:26.400Z,1026.51
2017-04-19T04:07:26.470Z,1026.67
2017-04-19T04:17:26.432Z,1026.7
2017-04-19T04:27:26.496Z,1026.68
2017-04-19T04:37:26.452Z,1026.74
2017-04-19T04:47:26.515Z,1026.79
2017-04-19T04:57:26.476Z,1026.85
2017-04-19T05:07:26.440Z,1026.97
2017-04-19T05:17:26.503Z,1027
2017-04-19T05:27:26.466Z,1027.05
2017-04-19T05:37:26.536Z,1027.2
2017-04-19T05:47:26.896Z,1027.25
2017-04-19T05:57:26.550Z,1027.41
2017-04-19T06:07:26.471Z,1027.54
2017-04-19T06:17:26.540Z,1027.64
2017-04-19T06:27:26.503Z,1027.81
2017-04-19T06:37:26.560Z,1028.04
2017-04-19T06:47:26.534Z,1028.13
2017-04-19T06:57:26.587Z,1028.14
2017-04-19T07:07:26.535Z,1028.24
2017-04-19T07:17:26.614Z,1028.3
2017-04-19T07:27:26.571Z,1028.29
2017-04-19T07:37:26.533Z,1028.33
2017-04-19T07:47:26.594Z,1028.42
2017-04-19T07:57:26.561Z,1028.5
2017-04-19T08:07:26.624Z,1028.59
2017-04-19T08:17:26.578Z,1028.68
2017-04-19T08:27:26.646Z,1028.8
2017-04-19T08:37:26.603Z,1028.71
2017-04-19T08:47:26.566Z,1028.7
2017-04-19T08:57:26.632Z,1028.7
2017-04-19T09:07:26.585Z,1028.84
2017-04-19T09:17:29.494Z,1028.9
2017-04-19T09:27:26.611Z,1028.92
2017-04-19T09:37:26.562Z,1028.97
2017-04-19T09:47:26.646Z,1028.91
2017-04-19T09:57:26.594Z,1028.94
2017-04-19T10:07:26.558Z,1028.85
2017-04-19T10:17:26.614Z,1028.89
2017-04-19T10:27:26.584Z,1028.88
2017-04-19T10:37:26.635Z,1028.85
2017-04-19T10:47:26.591Z,1028.88
2017-04-19T10:57:26.552Z,1028.76
2017-04-19T11:07:26.739Z,1028.77
2017-04-19T11:17:26.590Z,1028.82
2017-04-19T11:27:26.551Z,1028.76
2017-04-19T11:37:26.615Z,1028.78
2017-04-19T11:47:26.565Z,1028.9
2017-04-19T11:57:26.628Z,1028.81
2017-04-19T12:07:26.598Z,1028.73
2017-04-19T12:17:26.555Z,1028.81
2017-04-19T12:27:26.617Z,1028.82
2017-04-19T12:37:26.580Z,1028.72
2017-04-19T12:47:26.542Z,1028.69
2017-04-19T12:57:26.610Z,1028.56
2017-04-19T13:07:26.567Z,1028.63
2017-04-19T13:17:26.620Z,1028.64
2017-04-19T13:27:26.587Z,1028.54
2017-04-19T13:37:26.539Z,1028.52
2017-04-19T13:47:26.627Z,1028.42
2017-04-19T13:57:26.567Z,1028.32
2017-04-19T14:07:26.639Z,1028.34
2017-04-19T14:17:26.629Z,1028.15
2017-04-19T14:27:26.548Z,1028.12
2017-04-19T14:37:27.417Z,1028.07
2017-04-19T14:47:26.565Z,1027.98
2017-04-19T14:57:26.532Z,1027.96
2017-04-19T15:07:26.610Z,1027.91
2017-04-19T15:17:26.565Z,1027.84
2017-04-19T15:27:26.534Z,1027.91
2017-04-19T15:37:26.599Z,1028
2017-04-19T15:47:26.545Z,1028.04
2017-04-19T15:57:26.606Z,1028
2017-04-19T16:07:26.578Z,1027.94
2017-04-19T16:17:26.526Z,1027.99
2017-04-19T16:27:26.549Z,1028.06
2017-04-19T16:37:26.603Z,1028.13
2017-04-19T16:47:26.606Z,1028.25
2017-04-19T16:57:26.522Z,1028.21
2017-04-19T17:07:26.600Z,1028.17
2017-04-19T17:17:26.555Z,1028.27
2017-04-19T17:27:26.517Z,1028.23
2017-04-19T17:37:26.585Z,1028.35
2017-04-19T17:47:26.551Z,1028.32
2017-04-19T17:57:26.606Z,1028.3
2017-04-19T18:07:26.567Z,1028.34
2017-04-19T18:17:26.527Z,1028.39
2017-04-19T18:27:26.595Z,1028.47
2017-04-19T18:37:26.567Z,1028.55
2017-04-19T18:47:26.522Z,1028.6
2017-04-19T18:57:26.602Z,1028.63
2017-04-19T19:07:26.541Z,1028.74
2017-04-19T19:17:27.536Z,1028.75
2017-04-19T19:27:26.566Z,1028.84
2017-04-19T19:37:26.528Z,1028.87
2017-04-19T19:47:26.586Z,1028.91
2017-04-19T19:57:26.563Z,1028.97
2017-04-19T20:07:26.517Z,1029.03
2017-04-19T20:17:26.573Z,1029.09
2017-04-19T20:27:26.527Z,1029.14
2017-04-19T20:37:26.493Z,1029.12
2017-04-19T20:47:26.555Z,1029.27
2017-04-19T20:57:26.534Z,1029.31
2017-04-19T21:07:26.466Z,1029.23
2017-04-19T21:17:26.550Z,1029.28
2017-04-19T21:27:26.501Z,1029.35
2017-04-19T21:37:26.470Z,1029.47
2017-04-19T21:47:26.542Z,1029.46
2017-04-19T21:57:26.496Z,1029.58
2017-04-19T22:07:26.546Z,1029.4
2017-04-19T22:17:26.510Z,1029.47
2017-04-19T22:27:26.470Z,1029.38
2017-04-19T22:37:26.545Z,1029.55
2017-04-19T22:47:26.524Z,1029.64
2017-04-19T22:57:26.589Z,1029.63
2017-04-19T23:07:26.538Z,1029.68
2017-04-19T23:17:26.505Z,1029.58
2017-04-19T23:27:26.566Z,1029.45
2017-04-19T23:37:26.526Z,1029.37
2017-04-19T23:47:26.656Z,1029.36
2017-04-19T23:57:26.545Z,1029.33
